Time;durP1;ratioP1;P1;durP2;ratioP2;P2;SDS_P1;SDS_P2;PMS_P1;PMS_P2;Temp;Humidity;BMP_temperature;BMP_pressure;BME280_temperature;BME280_humidity;BME280_pressure;Samples;Min_cycle;Max_cycle;Signal;HPM_P1;HPM_P2
2021/04/13 00:00:33;;;;;;;1.60;0.22;;;3.90;99.90;;;;;;5050528;28;20513;-72
2021/04/13 00:03:05;;;;;;;1.60;0.30;;;3.90;99.90;;;;;;5058809;28;20245;-72
2021/04/13 00:05:39;;;;;;;1.90;0.98;;;3.90;99.90;;;;;;5057280;28;20216;-73
2021/04/13 00:08:09;;;;;;;1.67;0.25;;;3.80;99.90;;;;;;5055699;28;20201;-73
2021/04/13 00:10:48;;;;;;;1.65;0.22;;;3.80;99.90;;;;;;5057091;28;20897;-73
2021/04/13 00:13:15;;;;;;;1.60;0.20;;;3.80;99.90;;;;;;5050265;28;20233;-73
2021/04/13 00:15:48;;;;;;;1.70;0.30;;;3.70;99.90;;;;;;5043431;28;20636;-74
2021/04/13 00:18:15;;;;;;;1.60;0.20;;;3.70;99.90;;;;;;5054425;28;20652;-73
2021/04/13 00:20:57;;;;;;;1.67;0.20;;;3.70;99.90;;;;;;5054850;28;20551;-73
2021/04/13 00:23:24;;;;;;;1.67;0.20;;;3.70;99.90;;;;;;5053551;28;20571;-73
2021/04/13 00:25:59;;;;;;;1.63;0.20;;;3.70;99.90;;;;;;5056989;28;20185;-73
2021/04/13 00:28:30;;;;;;;1.80;0.57;;;3.80;99.90;;;;;;5056757;28;20208;-72
2021/04/13 00:30:59;;;;;;;1.60;0.20;;;3.80;99.90;;;;;;5042804;28;20287;-73
2021/04/13 00:33:28;;;;;;;1.65;0.20;;;3.80;99.90;;;;;;5049972;28;20228;-73
2021/04/13 00:36:11;;;;;;;1.60;0.20;;;3.70;99.90;;;;;;5064533;28;20172;-73
2021/04/13 00:39:02;;;;;;;1.60;0.20;;;3.70;99.90;;;;;;5069677;28;20234;-73
2021/04/13 00:41:30;;;;;;;1.60;0.20;;;3.60;99.90;;;;;;5011240;28;20247;-73
2021/04/13 00:44:00;;;;;;;1.60;0.20;;;3.60;99.90;;;;;;5051383;28;20181;-74
2021/04/13 00:46:37;;;;;;;9.43;1.95;;;3.70;99.90;;;;;;5055268;28;20189;-73
2021/04/13 00:49:03;;;;;;;1.60;0.20;;;3.70;99.90;;;;;;5052593;28;20181;-74
2021/04/13 00:51:34;;;;;;;1.63;0.20;;;3.60;99.90;;;;;;5055580;28;20256;-73
2021/04/13 00:54:03;;;;;;;1.63;0.20;;;3.60;99.90;;;;;;5058208;28;20185;-73
2021/04/13 00:56:31;;;;;;;1.60;0.20;;;3.50;99.90;;;;;;5051359;28;20185;-73
2021/04/13 00:59:11;;;;;;;3.83;2.28;;;3.50;99.90;;;;;;5055368;28;20178;-73
2021/04/13 01:01:52;;;;;;;1.60;0.20;;;3.40;99.90;;;;;;5052687;28;20242;-73
2021/04/13 01:04:31;;;;;;;1.63;0.20;;;3.40;99.90;;;;;;5048860;28;20181;-74
2021/04/13 01:07:18;;;;;;;1.65;0.20;;;3.40;99.90;;;;;;5056258;28;20232;-73
2021/04/13 01:09:50;;;;;;;1.70;0.20;;;3.50;99.90;;;;;;5050224;28;20181;-73
2021/04/13 01:12:29;;;;;;;1.60;0.20;;;3.60;99.90;;;;;;5065480;28;20235;-73
2021/04/13 01:14:56;;;;;;;1.60;0.20;;;3.50;99.90;;;;;;5062242;28;20188;-73
2021/04/13 01:17:23;;;;;;;1.70;0.30;;;3.50;99.90;;;;;;5051288;28;20189;-72
2021/04/13 01:20:02;;;;;;;1.60;0.20;;;3.40;99.90;;;;;;5056123;28;20185;-73
2021/04/13 01:22:45;;;;;;;1.63;0.20;;;3.50;99.90;;;;;;5054698;28;20205;-73
2021/04/13 01:25:17;;;;;;;1.63;0.20;;;3.40;99.90;;;;;;5055466;28;20671;-74
2021/04/13 01:28:05;;;;;;;1.60;0.20;;;3.50;99.90;;;;;;5057526;28;20205;-73
2021/04/13 01:30:43;;;;;;;1.63;0.20;;;3.50;99.90;;;;;;5044716;28;20184;-73
2021/04/13 01:33:11;;;;;;;1.60;0.20;;;3.60;99.90;;;;;;5050817;28;20197;-74
2021/04/13 01:35:37;;;;;;;1.60;0.30;;;3.50;99.90;;;;;;5070539;28;20245;-73
2021/04/13 01:38:16;;;;;;;1.60;0.20;;;3.50;99.90;;;;;;5087526;28;20730;-74
2021/04/13 01:41:45;;;;;;;1.65;0.28;;;3.50;99.90;;;;;;5072660;28;20426;-72
2021/04/13 01:43:41;;;;;;;1.60;0.22;;;3.50;99.90;;;;;;5065986;28;20246;-72
2021/04/13 01:46:09;;;;;;;1.63;0.30;;;3.50;99.90;;;;;;5063221;28;20185;-73
2021/04/13 01:48:37;;;;;;;1.60;0.20;;;3.50;99.90;;;;;;5083908;28;20192;-73
2021/04/13 01:51:06;;;;;;;1.60;0.20;;;3.50;99.90;;;;;;5072375;28;20166;-72
2021/04/13 01:53:38;;;;;;;1.60;0.20;;;3.40;99.90;;;;;;5060192;28;20221;-73
2021/04/13 01:56:07;;;;;;;1.70;0.20;;;3.40;99.90;;;;;;5061743;28;20570;-73
2021/04/13 01:58:44;;;;;;;1.60;0.20;;;3.30;99.90;;;;;;5062392;28;20193;-73
2021/04/13 02:01:14;;;;;;;1.80;0.50;;;3.30;99.90;;;;;;5072126;28;20263;-73
2021/04/13 02:03:48;;;;;;;1.67;0.30;;;3.20;99.90;;;;;;5070850;28;20448;-73
2021/04/13 02:06:24;;;;;;;1.67;0.30;;;3.10;99.90;;;;;;5064443;28;20244;-73
2021/04/13 02:08:53;;;;;;;1.70;0.25;;;3.00;99.90;;;;;;5070758;28;20197;-73
2021/04/13 02:11:26;;;;;;;1.63;0.20;;;3.10;99.90;;;;;;5069552;28;20188;-72
2021/04/13 02:14:00;;;;;;;1.63;0.20;;;3.00;99.90;;;;;;5069499;28;20169;-73
2021/04/13 02:17:00;;;;;;;1.60;0.20;;;2.90;99.90;;;;;;5070237;28;20181;-73
2021/04/13 02:19:26;;;;;;;1.65;0.25;;;3.00;99.90;;;;;;5047693;28;20188;-73
2021/04/13 02:21:57;;;;;;;1.70;0.20;;;3.00;99.90;;;;;;5058308;28;20209;-73
2021/04/13 02:24:34;;;;;;;1.60;0.20;;;2.90;99.90;;;;;;5055797;28;20180;-73
2021/04/13 02:27:03;;;;;;;1.60;0.20;;;3.00;99.90;;;;;;5063934;28;20211;-73
2021/04/13 02:29:35;;;;;;;1.63;0.20;;;3.00;99.90;;;;;;5065425;28;20173;-73
2021/04/13 02:32:04;;;;;;;1.60;0.20;;;3.00;99.90;;;;;;5070985;28;20218;-72
2021/04/13 02:34:39;;;;;;;1.67;0.20;;;3.10;99.90;;;;;;5055001;28;20215;-73
2021/04/13 02:37:14;;;;;;;1.65;0.20;;;3.10;99.90;;;;;;5058490;28;20199;-73
2021/04/13 02:39:40;;;;;;;1.65;0.30;;;3.10;99.90;;;;;;5040955;28;20279;-73
2021/04/13 02:42:20;;;;;;;1.65;0.20;;;3.10;99.90;;;;;;5056196;28;20209;-73
2021/04/13 02:45:04;;;;;;;1.63;0.20;;;3.00;99.90;;;;;;5070882;28;20208;-72
2021/04/13 02:47:33;;;;;;;1.70;0.30;;;3.10;99.90;;;;;;5072497;28;20205;-73
2021/04/13 02:50:03;;;;;;;1.63;0.20;;;3.00;99.90;;;;;;5073826;28;20180;-73
2021/04/13 02:52:38;;;;;;;1.70;0.30;;;3.00;99.90;;;;;;5067928;28;20193;-73
2021/04/13 02:55:07;;;;;;;1.60;0.20;;;3.00;99.90;;;;;;5064103;28;20259;-73
2021/04/13 02:57:47;;;;;;;1.70;0.20;;;3.00;99.90;;;;;;5051788;28;20248;-73
2021/04/13 03:00:28;;;;;;;1.65;0.25;;;2.90;99.90;;;;;;5053333;28;20247;-73
2021/04/13 03:02:57;;;;;;;1.65;0.20;;;2.80;99.90;;;;;;5052573;28;20228;-73
2021/04/13 03:05:26;;;;;;;1.60;0.20;;;2.70;99.90;;;;;;5053475;28;20590;-73
2021/04/13 03:07:52;;;;;;;1.63;0.20;;;2.80;99.90;;;;;;5043095;28;20768;-73
2021/04/13 03:10:25;;;;;;;1.70;0.30;;;2.80;99.90;;;;;;5058778;28;20193;-73
2021/04/13 03:12:53;;;;;;;1.63;0.20;;;2.80;99.90;;;;;;5038030;28;20676;-73
2021/04/13 03:15:26;;;;;;;1.60;0.20;;;2.80;99.90;;;;;;5051500;28;20177;-73
2021/04/13 03:17:56;;;;;;;2.25;1.85;;;2.90;99.90;;;;;;5048199;28;20248;-73
2021/04/13 03:20:26;;;;;;;1.63;0.30;;;2.90;99.90;;;;;;5044451;28;20904;-73
2021/04/13 03:22:57;;;;;;;1.70;0.20;;;2.90;99.90;;;;;;5054256;28;20671;-73
2021/04/13 03:25:29;;;;;;;1.67;0.20;;;2.90;99.90;;;;;;5038830;28;20173;-73
2021/04/13 03:27:55;;;;;;;1.70;0.30;;;2.90;99.90;;;;;;5053322;28;20205;-71
2021/04/13 03:30:25;;;;;;;1.70;0.30;;;2.90;99.90;;;;;;5058176;28;20219;-73
2021/04/13 03:32:55;;;;;;;1.63;0.30;;;2.80;99.90;;;;;;5053535;28;20193;-73
2021/04/13 03:35:25;;;;;;;1.67;0.30;;;2.80;99.90;;;;;;5044897;28;20209;-73
2021/04/13 03:37:53;;;;;;;1.63;0.20;;;2.80;99.90;;;;;;5035644;28;20187;-73
2021/04/13 03:40:22;;;;;;;1.60;0.20;;;2.80;99.90;;;;;;5056469;28;20223;-73
2021/04/13 03:42:58;;;;;;;1.63;0.20;;;2.80;99.90;;;;;;5050282;28;20274;-73
2021/04/13 03:45:25;;;;;;;1.70;0.30;;;2.80;99.90;;;;;;5045653;28;20186;-73
2021/04/13 03:47:51;;;;;;;1.60;0.20;;;2.70;99.90;;;;;;5050185;28;20205;-73
2021/04/13 03:50:27;;;;;;;1.70;0.50;;;2.70;99.90;;;;;;5048446;28;20189;-73
2021/04/13 03:53:12;;;;;;;1.70;0.40;;;2.70;99.90;;;;;;5060994;28;20209;-74
2021/04/13 03:55:38;;;;;;;1.65;0.20;;;2.60;99.90;;;;;;5068946;28;20632;-73
2021/04/13 03:58:19;;;;;;;1.60;0.20;;;2.60;99.90;;;;;;5045667;28;20553;-73
2021/04/13 04:00:45;;;;;;;3.55;2.15;;;2.60;99.90;;;;;;5053327;28;20216;-73
2021/04/13 04:03:12;;;;;;;1.63;0.20;;;2.70;99.90;;;;;;5057979;28;20251;-73
2021/04/13 04:05:47;;;;;;;1.63;0.20;;;2.60;99.90;;;;;;5049905;28;20687;-74
2021/04/13 04:08:49;;;;;;;1.65;0.20;;;2.60;99.90;;;;;;5046286;28;20216;-74
2021/04/13 04:11:15;;;;;;;1.60;0.20;;;2.70;99.90;;;;;;5046668;28;20181;-73
2021/04/13 04:13:50;;;;;;;3.45;2.35;;;2.60;99.90;;;;;;5055451;28;20200;-73
2021/04/13 04:16:32;;;;;;;1.65;0.20;;;2.60;99.90;;;;;;5053316;28;20730;-74
2021/04/13 04:19:15;;;;;;;1.70;0.30;;;2.60;99.90;;;;;;5050595;28;20197;-73
2021/04/13 04:21:43;;;;;;;1.67;0.30;;;2.50;99.90;;;;;;5058257;28;20182;-74
2021/04/13 04:24:38;;;;;;;1.63;0.20;;;2.50;99.90;;;;;;5050790;28;20269;-73
2021/04/13 04:27:25;;;;;;;1.67;0.20;;;2.50;99.90;;;;;;5050432;28;20288;-73
2021/04/13 04:30:04;;;;;;;1.60;0.20;;;2.40;99.90;;;;;;5039826;28;20671;-73
2021/04/13 04:32:30;;;;;;;1.70;0.20;;;2.40;99.90;;;;;;5059182;28;20200;-74
2021/04/13 04:34:58;;;;;;;1.70;0.30;;;2.40;99.90;;;;;;5073825;28;20267;-73
2021/04/13 04:37:25;;;;;;;1.80;0.75;;;2.40;99.90;;;;;;5067137;28;20193;-73
2021/04/13 04:40:14;;;;;;;1.63;0.40;;;2.40;99.90;;;;;;5057625;28;20185;-73
2021/04/13 04:42:51;;;;;;;1.60;0.20;;;2.30;99.90;;;;;;5053841;28;20339;-73
2021/04/13 04:45:19;;;;;;;1.60;0.20;;;2.40;99.90;;;;;;5052389;28;20635;-73
2021/04/13 04:47:47;;;;;;;1.60;0.20;;;2.40;99.90;;;;;;5054934;28;20217;-73
2021/04/13 04:50:16;;;;;;;1.65;0.20;;;2.30;99.90;;;;;;5051849;28;20170;-73
2021/04/13 04:52:41;;;;;;;1.60;0.20;;;2.20;99.90;;;;;;5053981;28;20216;-73
2021/04/13 04:55:08;;;;;;;1.70;0.37;;;2.20;99.90;;;;;;5061382;28;20189;-73
2021/04/13 04:57:34;;;;;;;1.65;0.20;;;2.30;99.90;;;;;;5056104;28;20191;-73
2021/04/13 04:59:59;;;;;;;1.70;0.20;;;2.30;99.90;;;;;;5053411;28;20268;-73
2021/04/13 05:02:25;;;;;;;1.60;0.20;;;2.30;99.90;;;;;;5051285;28;20218;-73
2021/04/13 05:04:51;;;;;;;1.60;0.20;;;2.20;99.90;;;;;;5043350;28;20538;-74
2021/04/13 05:07:17;;;;;;;1.65;0.30;;;2.20;99.90;;;;;;5055782;28;20586;-72
2021/04/13 05:09:43;;;;;;;1.60;0.20;;;2.10;99.90;;;;;;5055458;28;20178;-72
2021/04/13 05:12:09;;;;;;;1.67;0.27;;;2.20;99.90;;;;;;5061097;28;20445;-72
2021/04/13 05:14:34;;;;;;;1.60;0.20;;;2.30;99.90;;;;;;5056010;28;20185;-73
2021/04/13 05:17:00;;;;;;;1.67;0.30;;;2.30;99.90;;;;;;5054660;28;20515;-73
2021/04/13 05:19:25;;;;;;;1.60;0.20;;;2.30;99.90;;;;;;5047861;28;20178;-73
2021/04/13 05:21:51;;;;;;;1.60;0.20;;;2.40;99.90;;;;;;5053742;28;20212;-72
2021/04/13 05:24:16;;;;;;;1.67;0.20;;;2.40;99.90;;;;;;5056699;28;20267;-73
2021/04/13 05:26:42;;;;;;;1.60;0.20;;;2.30;99.90;;;;;;5052350;28;20189;-73
2021/04/13 05:29:08;;;;;;;1.60;0.20;;;2.30;99.90;;;;;;5057304;28;20200;-73
2021/04/13 05:31:40;;;;;;;1.60;0.30;;;2.30;99.90;;;;;;5045980;28;20182;-72
2021/04/13 05:34:07;;;;;;;1.60;0.20;;;2.40;99.90;;;;;;5054006;28;20177;-73
2021/04/13 05:36:33;;;;;;;1.63;0.20;;;2.40;99.90;;;;;;5049682;28;20181;-73
2021/04/13 05:38:59;;;;;;;1.65;0.28;;;2.40;99.90;;;;;;5040571;28;20592;-72
2021/04/13 05:41:26;;;;;;;1.60;0.20;;;2.40;99.90;;;;;;5045718;28;20228;-73
2021/04/13 05:43:51;;;;;;;1.63;0.30;;;2.30;99.90;;;;;;5050299;28;20467;-73
2021/04/13 05:46:22;;;;;;;1.60;0.30;;;2.40;99.90;;;;;;5066256;28;20192;-73
2021/04/13 05:48:48;;;;;;;1.60;0.20;;;2.40;99.90;;;;;;5074728;28;20205;-72
2021/04/13 05:51:13;;;;;;;1.70;0.50;;;2.40;99.90;;;;;;5069203;28;20224;-73
2021/04/13 05:53:39;;;;;;;1.60;0.20;;;2.50;99.90;;;;;;5068860;28;20566;-73
2021/04/13 05:56:05;;;;;;;1.60;0.20;;;2.60;99.90;;;;;;5059641;28;20663;-74
2021/04/13 05:58:42;;;;;;;1.60;0.20;;;2.60;99.90;;;;;;5066278;28;20242;-74
2021/04/13 06:01:09;;;;;;;2.88;2.15;;;2.70;99.90;;;;;;5051075;28;20220;-73
2021/04/13 06:03:35;;;;;;;1.60;0.20;;;2.70;99.90;;;;;;5060201;28;20316;-73
2021/04/13 06:06:01;;;;;;;1.60;0.20;;;2.70;99.90;;;;;;5053680;28;20191;-72
2021/04/13 06:08:27;;;;;;;1.63;0.20;;;2.80;99.90;;;;;;5035774;28;20209;-74
2021/04/13 06:10:53;;;;;;;1.80;0.75;;;2.90;99.90;;;;;;5054148;28;20443;-74
2021/04/13 06:13:20;;;;;;;1.60;0.20;;;2.90;99.90;;;;;;5058477;28;20205;-73
2021/04/13 06:15:45;;;;;;;1.67;0.30;;;2.90;99.90;;;;;;5038685;28;20575;-73
2021/04/13 06:18:11;;;;;;;10.77;10.00;;;2.90;99.90;;;;;;5053307;28;20189;-73
2021/04/13 06:20:36;;;;;;;1.63;0.20;;;2.90;99.90;;;;;;5047638;28;20873;-74
2021/04/13 06:23:02;;;;;;;1.70;0.20;;;2.90;99.90;;;;;;5050803;28;20216;-73
2021/04/13 06:25:30;;;;;;;1.67;0.20;;;3.00;99.90;;;;;;5056401;28;20189;-73
2021/04/13 06:27:57;;;;;;;1.92;1.30;;;3.10;99.90;;;;;;5058396;28;20227;-73
2021/04/13 06:30:25;;;;;;;1.80;0.77;;;3.20;99.90;;;;;;5043039;28;20185;-73
2021/04/13 06:32:51;;;;;;;1.80;0.60;;;3.20;99.90;;;;;;5032232;28;20432;-73
2021/04/13 06:35:18;;;;;;;1.60;0.20;;;3.20;99.90;;;;;;5052108;28;20444;-71
2021/04/13 06:37:46;;;;;;;1.65;0.20;;;3.30;99.90;;;;;;5036968;28;20193;-73
2021/04/13 06:40:53;;;;;;;1.70;0.47;;;3.30;99.90;;;;;;5053787;28;20571;-71
2021/04/13 06:43:22;;;;;;;1.65;0.20;;;3.30;99.90;;;;;;5035440;28;20213;-71
2021/04/13 06:46:15;;;;;;;2.25;0.95;;;3.30;99.90;;;;;;5040399;28;20453;-72
2021/04/13 06:48:51;;;;;;;1.80;0.45;;;3.40;99.90;;;;;;5070011;28;20416;-73
2021/04/13 06:51:20;;;;;;;1.70;0.38;;;3.40;99.90;;;;;;5073610;28;20169;-72
2021/04/13 06:54:07;;;;;;;1.60;0.20;;;3.50;99.90;;;;;;5075563;28;20201;-71
2021/04/13 06:57:04;;;;;;;1.60;0.20;;;3.50;99.90;;;;;;5071806;28;20204;-71
2021/04/13 07:00:00;;;;;;;1.63;0.20;;;3.60;99.90;;;;;;5071506;28;20177;-72
2021/04/13 07:02:44;;;;;;;1.70;0.30;;;3.70;99.90;;;;;;5064191;28;20197;-70
2021/04/13 07:05:15;;;;;;;1.70;0.40;;;3.80;99.90;;;;;;5055997;28;20261;-72
2021/04/13 07:07:56;;;;;;;1.67;0.25;;;3.70;99.90;;;;;;5057880;28;20222;-72
2021/04/13 07:10:33;;;;;;;1.65;0.25;;;3.60;99.90;;;;;;5065981;28;20185;-72
2021/04/13 07:13:08;;;;;;;2.50;1.20;;;3.60;99.90;;;;;;5059501;28;20184;-71
2021/04/13 07:15:54;;;;;;;1.60;0.20;;;3.70;99.90;;;;;;5073227;28;20184;-71
2021/04/13 07:18:28;;;;;;;1.70;0.47;;;3.70;99.90;;;;;;5054759;28;20177;-71
2021/04/13 07:21:04;;;;;;;1.80;0.55;;;3.80;99.90;;;;;;5073605;28;20860;-71
2021/04/13 07:23:42;;;;;;;1.70;0.20;;;3.70;99.90;;;;;;5067611;28;20204;-71
2021/04/13 07:26:35;;;;;;;2.40;0.77;;;3.70;99.90;;;;;;5059544;28;20190;-71
2021/04/13 07:29:30;;;;;;;2.08;1.08;;;3.80;99.90;;;;;;5054110;28;20201;-72
2021/04/13 07:32:17;;;;;;;1.70;0.30;;;3.80;99.90;;;;;;5039566;28;20576;-73
2021/04/13 07:34:45;;;;;;;1.88;0.75;;;3.90;99.90;;;;;;5051869;28;20227;-73
2021/04/13 07:37:16;;;;;;;1.60;0.20;;;3.90;99.90;;;;;;5073038;28;20172;-73
2021/04/13 07:39:47;;;;;;;2.20;0.65;;;3.90;99.90;;;;;;5060732;28;20177;-73
2021/04/13 07:42:41;;;;;;;1.70;0.20;;;4.00;99.90;;;;;;5060287;28;20752;-73
2021/04/13 07:45:21;;;;;;;2.33;1.05;;;4.10;99.90;;;;;;5062689;28;20201;-71
2021/04/13 07:48:06;;;;;;;1.70;0.40;;;4.20;99.90;;;;;;5056503;28;20209;-73
2021/04/13 07:50:48;;;;;;;1.70;0.30;;;4.20;99.90;;;;;;5041178;28;20264;-73
2021/04/13 07:53:46;;;;;;;1.60;0.20;;;4.30;99.90;;;;;;5060863;28;20208;-73
2021/04/13 07:56:18;;;;;;;2.28;1.10;;;4.30;99.90;;;;;;5073905;28;20188;-73
2021/04/13 07:58:55;;;;;;;2.28;0.93;;;4.30;99.90;;;;;;5059064;28;20208;-72
2021/04/13 08:01:21;;;;;;;1.60;0.20;;;4.30;99.90;;;;;;5050325;28;20181;-73
2021/04/13 08:03:47;;;;;;;1.63;0.20;;;4.30;99.90;;;;;;5044786;28;20736;-73
2021/04/13 08:06:27;;;;;;;1.67;0.30;;;4.40;99.90;;;;;;5053068;28;20185;-73
2021/04/13 08:09:12;;;;;;;1.60;0.20;;;4.50;99.90;;;;;;5054046;28;20216;-72
2021/04/13 08:11:37;;;;;;;1.67;0.20;;;4.50;99.90;;;;;;5050277;28;21481;-73
2021/04/13 08:14:21;;;;;;;1.80;0.60;;;4.60;99.90;;;;;;5053264;28;20185;-72
2021/04/13 08:16:47;;;;;;;3.85;2.38;;;4.60;99.90;;;;;;5055950;28;20188;-72
2021/04/13 08:19:32;;;;;;;1.63;0.20;;;4.70;99.90;;;;;;5034989;28;20266;-73
2021/04/13 08:22:13;;;;;;;1.70;0.20;;;4.70;99.90;;;;;;5049429;28;20474;-74
2021/04/13 08:24:46;;;;;;;1.60;0.20;;;4.70;99.90;;;;;;5046516;28;20181;-73
2021/04/13 08:27:35;;;;;;;1.67;0.30;;;4.80;99.90;;;;;;5050584;28;20262;-74
2021/04/13 08:30:26;;;;;;;1.80;0.60;;;4.80;99.90;;;;;;5032130;28;20657;-73
2021/04/13 08:33:10;;;;;;;2.45;0.77;;;4.90;99.90;;;;;;5048799;28;20413;-73
2021/04/13 08:35:44;;;;;;;1.70;0.20;;;4.90;99.90;;;;;;5050874;28;20278;-73
2021/04/13 08:38:46;;;;;;;1.70;0.20;;;4.90;99.90;;;;;;5055557;28;20497;-71
2021/04/13 08:41:33;;;;;;;1.80;0.50;;;5.00;99.90;;;;;;5049496;28;20458;-72
2021/04/13 08:44:01;;;;;;;1.67;0.20;;;5.00;99.90;;;;;;5050235;28;20185;-72
2021/04/13 08:46:53;;;;;;;1.60;0.30;;;5.10;99.90;;;;;;5055619;28;20177;-72
2021/04/13 08:49:30;;;;;;;1.60;0.20;;;5.20;99.90;;;;;;5065408;28;20196;-72
2021/04/13 08:52:21;;;;;;;1.60;0.20;;;5.20;99.90;;;;;;5072771;28;20215;-71
2021/04/13 08:54:49;;;;;;;3.30;1.38;;;5.30;99.90;;;;;;5063967;28;20185;-71
2021/04/13 08:57:17;;;;;;;3.97;3.05;;;5.30;99.90;;;;;;5066364;28;20170;-71
2021/04/13 08:59:55;;;;;;;1.80;0.60;;;5.30;99.90;;;;;;5070307;28;20229;-72
2021/04/13 09:02:29;;;;;;;1.60;0.30;;;5.30;99.90;;;;;;5066579;28;20205;-70
2021/04/13 09:05:22;;;;;;;1.95;0.80;;;5.30;99.90;;;;;;5071157;28;20603;-70
2021/04/13 09:07:48;;;;;;;1.60;0.30;;;5.50;99.90;;;;;;5054709;28;20208;-72
2021/04/13 09:10:34;;;;;;;3.95;2.65;;;5.50;99.90;;;;;;5064762;28;20270;-72
2021/04/13 09:13:21;;;;;;;6.35;5.53;;;5.50;99.90;;;;;;5063146;28;20194;-72
2021/04/13 09:15:58;;;;;;;1.60;0.30;;;5.60;99.90;;;;;;5053748;28;20185;-72
2021/04/13 09:18:32;;;;;;;1.50;0.20;;;5.80;99.90;;;;;;5071456;28;20173;-72
2021/04/13 09:21:14;;;;;;;1.60;0.20;;;5.80;99.40;;;;;;5054711;28;20202;-73
2021/04/13 09:24:11;;;;;;;1.58;0.20;;;5.90;99.90;;;;;;5066523;28;20189;-73
2021/04/13 09:26:56;;;;;;;1.73;0.30;;;6.00;99.00;;;;;;5062180;28;20182;-73
2021/04/13 09:29:46;;;;;;;1.60;0.20;;;6.10;97.70;;;;;;5058607;28;20197;-72
2021/04/13 09:32:34;;;;;;;1.85;1.00;;;6.20;96.90;;;;;;5044626;28;20357;-72
2021/04/13 09:35:26;;;;;;;1.60;0.20;;;6.40;97.60;;;;;;5049676;28;20250;-73
2021/04/13 09:38:30;;;;;;;2.00;0.60;;;6.60;97.10;;;;;;5049184;28;20259;-73
2021/04/13 09:41:42;;;;;;;1.60;0.30;;;6.70;95.10;;;;;;5049433;28;20181;-73
2021/04/13 09:44:08;;;;;;;1.80;0.40;;;6.70;94.00;;;;;;5054267;28;20177;-73
2021/04/13 09:46:39;;;;;;;1.60;0.30;;;6.60;93.90;;;;;;5053490;28;20525;-72
2021/04/13 09:49:13;;;;;;;1.60;0.30;;;6.60;93.60;;;;;;5049995;28;20554;-73
2021/04/13 09:52:27;;;;;;;1.60;0.30;;;6.60;93.30;;;;;;5053314;28;20509;-72
2021/04/13 09:55:05;;;;;;;1.67;0.53;;;6.70;92.40;;;;;;5058976;28;20189;-73
2021/04/13 09:57:55;;;;;;;1.60;0.30;;;6.70;91.40;;;;;;5051614;28;20431;-72
2021/04/13 10:00:30;;;;;;;1.57;0.20;;;6.80;91.30;;;;;;5043987;28;20454;-73
2021/04/13 10:03:10;;;;;;;1.83;0.73;;;6.90;91.40;;;;;;5049950;28;20458;-72
2021/04/13 10:05:39;;;;;;;1.50;0.20;;;7.10;91.60;;;;;;5051891;28;20272;-72
2021/04/13 10:08:10;;;;;;;1.77;0.50;;;7.40;91.10;;;;;;5046348;28;20981;-73
2021/04/13 10:10:57;;;;;;;1.57;0.20;;;7.60;90.50;;;;;;5051242;28;20521;-72
2021/04/13 10:13:34;;;;;;;1.90;0.80;;;7.60;90.30;;;;;;5054368;28;20550;-72
2021/04/13 10:16:09;;;;;;;1.50;0.20;;;7.60;88.30;;;;;;5052314;28;20442;-72
2021/04/13 10:18:46;;;;;;;1.70;0.40;;;7.50;88.70;;;;;;5051704;28;20431;-72
2021/04/13 10:21:30;;;;;;;1.60;0.30;;;7.40;90.00;;;;;;5051817;28;20441;-72
2021/04/13 10:24:30;;;;;;;2.10;0.97;;;7.40;90.80;;;;;;5051555;28;20814;-71
2021/04/13 10:27:31;;;;;;;2.37;1.07;;;7.20;91.00;;;;;;5055679;28;20463;-71
2021/04/13 10:30:13;;;;;;;1.60;0.20;;;7.10;91.40;;;;;;5031312;28;20448;-73
2021/04/13 10:33:06;;;;;;;1.60;0.20;;;7.00;91.00;;;;;;5034878;28;20459;-72
2021/04/13 10:36:10;;;;;;;1.50;0.20;;;7.10;90.90;;;;;;5051926;28;20448;-72
2021/04/13 10:39:26;;;;;;;1.60;0.37;;;7.20;90.40;;;;;;5054486;28;20477;-72
2021/04/13 10:42:28;;;;;;;1.60;0.20;;;7.30;88.50;;;;;;4938067;28;20468;-72
2021/04/13 10:45:16;;;;;;;1.53;0.20;;;7.40;88.70;;;;;;5043465;28;20443;-72
2021/04/13 10:48:20;;;;;;;1.57;0.20;;;7.50;87.40;;;;;;5044669;28;20491;-72
2021/04/13 10:51:13;;;;;;;1.53;0.20;;;7.60;86.10;;;;;;4940707;28;20453;-73
2021/04/13 10:54:21;;;;;;;1.60;0.30;;;7.60;80.80;;;;;;5049687;28;20460;-74
2021/04/13 10:57:09;;;;;;;1.57;0.20;;;7.60;86.80;;;;;;5046014;28;20954;-74
2021/04/13 10:59:41;;;;;;;1.53;0.20;;;7.80;87.20;;;;;;5050160;28;20436;-71
2021/04/13 11:02:44;;;;;;;1.60;0.30;;;7.80;84.60;;;;;;5047763;28;20516;-71
2021/04/13 11:05:34;;;;;;;1.60;0.30;;;7.80;85.00;;;;;;5047538;28;20444;-70
2021/04/13 11:08:15;;;;;;;1.60;0.40;;;8.00;84.30;;;;;;5048568;28;20467;-71
2021/04/13 11:11:11;;;;;;;1.53;0.20;;;8.10;82.90;;;;;;5043866;28;20526;-72
2021/04/13 11:14:06;;;;;;;2.37;0.83;;;8.30;82.90;;;;;;5049080;28;20463;-72
2021/04/13 11:17:09;;;;;;;1.53;0.20;;;8.60;80.00;;;;;;4994977;28;20532;-71
2021/04/13 11:20:08;;;;;;;1.60;0.37;;;8.70;78.50;;;;;;5012727;28;20450;-71
2021/04/13 11:22:47;;;;;;;1.70;0.30;;;8.70;77.90;;;;;;5049332;28;20451;-71
2021/04/13 11:25:28;;;;;;;1.57;0.20;;;8.60;79.50;;;;;;5055610;28;20435;-71
2021/04/13 11:28:33;;;;;;;4.30;1.13;;;8.60;80.40;;;;;;5036519;28;20821;-71
2021/04/13 11:31:34;;;;;;;2.10;0.50;;;8.50;82.20;;;;;;5053208;28;20443;-71
2021/04/13 11:34:07;;;;;;;1.53;0.20;;;8.30;82.60;;;;;;5023047;28;20462;-71
2021/04/13 11:36:41;;;;;;;1.60;0.40;;;8.20;81.40;;;;;;5054827;28;21006;-71
2021/04/13 11:39:23;;;;;;;2.30;0.70;;;8.10;81.70;;;;;;5054310;28;20817;-71
2021/04/13 11:41:55;;;;;;;1.53;0.20;;;8.10;82.10;;;;;;5053985;28;20471;-70
2021/04/13 11:44:20;;;;;;;1.57;0.20;;;8.20;81.80;;;;;;5056040;28;20440;-70
2021/04/13 11:47:13;;;;;;;2.00;0.90;;;8.40;78.10;;;;;;5033599;28;20438;-70
2021/04/13 11:50:18;;;;;;;1.57;0.20;;;8.50;78.90;;;;;;5055448;28;20185;-72
2021/04/13 11:53:08;;;;;;;1.57;0.20;;;8.80;78.80;;;;;;5049873;28;20447;-69
2021/04/13 11:55:46;;;;;;;1.73;0.33;;;9.20;79.00;;;;;;5047528;28;20847;-70
2021/04/13 11:58:27;;;;;;;1.50;0.20;;;9.40;76.70;;;;;;5047675;28;20440;-70
2021/04/13 12:01:14;;;;;;;1.53;0.20;;;9.30;76.50;;;;;;5054213;28;21210;-70
2021/04/13 12:04:03;;;;;;;1.90;0.67;;;9.20;77.50;;;;;;5053275;28;20509;-69
2021/04/13 12:06:58;;;;;;;1.57;0.20;;;9.00;77.40;;;;;;5040596;28;20444;-71
2021/04/13 12:09:36;;;;;;;1.60;0.30;;;8.80;79.00;;;;;;5051939;28;20447;-70
2021/04/13 12:12:03;;;;;;;1.50;0.20;;;8.60;77.60;;;;;;5037044;28;20459;-70
2021/04/13 12:14:38;;;;;;;1.53;0.20;;;8.50;80.00;;;;;;5051345;28;20543;-70
2021/04/13 12:17:11;;;;;;;1.50;0.20;;;8.40;77.60;;;;;;5035381;28;20471;-70
2021/04/13 12:19:56;;;;;;;1.53;0.20;;;8.60;76.10;;;;;;5048768;28;20436;-70
2021/04/13 12:22:36;;;;;;;1.50;0.20;;;9.00;75.30;;;;;;5052413;28;20513;-69
2021/04/13 12:25:02;;;;;;;1.90;0.67;;;9.40;75.00;;;;;;5055172;28;20456;-69
2021/04/13 12:27:30;;;;;;;1.53;0.20;;;9.40;70.80;;;;;;5054126;28;20479;-69
2021/04/13 12:30:21;;;;;;;1.53;0.20;;;9.60;71.10;;;;;;5053391;28;20451;-69
2021/04/13 12:32:47;;;;;;;1.70;0.40;;;9.50;70.90;;;;;;5063629;28;20541;-69
2021/04/13 12:35:32;;;;;;;1.67;0.47;;;9.10;67.00;;;;;;5035313;28;20520;-66
2021/04/13 12:37:57;;;;;;;2.93;1.23;;;8.90;66.60;;;;;;5031432;28;20770;-66
2021/04/13 12:40:29;;;;;;;1.57;0.20;;;8.80;68.30;;;;;;5048722;28;20570;-67
2021/04/13 12:43:16;;;;;;;1.50;0.20;;;8.70;69.50;;;;;;5053272;28;20559;-68
2021/04/13 12:45:49;;;;;;;1.70;0.53;;;8.70;70.50;;;;;;5057166;28;20443;-68
2021/04/13 12:48:40;;;;;;;1.57;0.20;;;8.70;73.10;;;;;;5070698;28;20499;-67
2021/04/13 12:51:08;;;;;;;1.60;0.33;;;8.70;77.00;;;;;;5068951;28;20434;-68
2021/04/13 12:53:34;;;;;;;1.50;0.20;;;8.70;78.90;;;;;;5064366;28;20981;-67
2021/04/13 12:56:12;;;;;;;1.50;0.30;;;8.80;81.00;;;;;;5062683;28;20440;-66
2021/04/13 12:58:41;;;;;;;1.53;0.20;;;8.90;83.00;;;;;;5063301;28;20231;-69
2021/04/13 13:01:08;;;;;;;1.70;0.60;;;8.90;81.50;;;;;;5065555;28;20449;-71
2021/04/13 13:03:39;;;;;;;1.80;0.80;;;9.00;80.50;;;;;;5052358;28;20468;-70
2021/04/13 13:06:35;;;;;;;1.50;0.20;;;9.00;79.70;;;;;;5053838;28;20447;-69
2021/04/13 13:09:05;;;;;;;1.60;0.40;;;9.20;78.90;;;;;;5056492;28;20517;-71
2021/04/13 13:11:31;;;;;;;4.13;0.97;;;9.30;78.20;;;;;;5056177;28;20451;-69
2021/04/13 13:13:57;;;;;;;2.40;0.87;;;9.40;78.30;;;;;;5054040;28;20439;-68
2021/04/13 13:16:26;;;;;;;1.50;0.20;;;9.40;79.00;;;;;;5062087;28;20911;-67
2021/04/13 13:18:55;;;;;;;1.60;0.30;;;9.40;79.00;;;;;;5069389;28;20430;-68
2021/04/13 13:21:26;;;;;;;1.90;1.07;;;9.40;78.30;;;;;;5045991;28;20452;-66
2021/04/13 13:24:00;;;;;;;1.50;0.20;;;9.50;78.10;;;;;;5063550;28;20451;-67
2021/04/13 13:26:26;;;;;;;1.50;0.20;;;9.80;78.50;;;;;;5071110;28;20493;-66
2021/04/13 13:28:51;;;;;;;1.50;0.20;;;10.00;76.30;;;;;;5051263;28;20471;-66
2021/04/13 13:31:27;;;;;;;1.50;0.20;;;10.20;73.80;;;;;;5055087;28;20196;-67
2021/04/13 13:33:57;;;;;;;1.50;0.20;;;10.40;74.70;;;;;;5058527;28;20172;-66
2021/04/13 13:36:26;;;;;;;1.50;0.20;;;10.20;70.80;;;;;;5059941;28;20910;-66
2021/04/13 13:38:53;;;;;;;1.57;0.27;;;10.20;71.10;;;;;;5068818;28;20495;-65
2021/04/13 13:41:22;;;;;;;1.57;0.20;;;10.00;71.50;;;;;;5068430;28;20712;-66
2021/04/13 13:43:49;;;;;;;1.80;0.50;;;9.80;74.70;;;;;;5056919;28;20451;-66
2021/04/13 13:46:32;;;;;;;2.00;0.50;;;9.50;76.10;;;;;;5051790;28;20462;-69